Time;durP1;ratioP1;P1;durP2;ratioP2;P2;SDS_P1;SDS_P2;PMS_P1;PMS_P2;Temp;Humidity;BMP_temperature;BMP_pressure;BME280_temperature;BME280_humidity;BME280_pressure;Samples;Min_cycle;Max_cycle;Signal;HPM_P1;HPM_P2
2022/07/31 00:00:08;;;;;;;3.28;1.40;;;24.00;41.90;;;;;;4994621;28;20061;-44
2022/07/31 00:02:37;;;;;;;2.42;1.10;;;23.90;42.00;;;;;;5000586;28;20104;-42
2022/07/31 00:05:05;;;;;;;1.25;1.08;;;23.90;42.10;;;;;;5001947;28;20065;-43
2022/07/31 00:07:32;;;;;;;6.13;1.17;;;23.90;42.10;;;;;;5000614;28;20402;-45
2022/07/31 00:09:59;;;;;;;1.50;1.20;;;23.90;42.20;;;;;;4995612;28;20060;-44
2022/07/31 00:12:26;;;;;;;1.90;1.33;;;23.90;42.30;;;;;;4996536;28;20061;-45
2022/07/31 00:14:54;;;;;;;3.17;1.50;;;23.80;42.40;;;;;;4997557;28;20434;-46
2022/07/31 00:17:21;;;;;;;2.92;1.65;;;23.80;42.50;;;;;;4997399;28;20058;-45
2022/07/31 00:19:50;;;;;;;2.50;1.35;;;23.80;42.50;;;;;;4996272;28;20054;-45
2022/07/31 00:22:17;;;;;;;1.45;1.27;;;23.80;42.60;;;;;;5001406;28;20073;-42
2022/07/31 00:24:44;;;;;;;3.13;1.45;;;23.80;42.60;;;;;;4995747;28;20049;-43
2022/07/31 00:27:12;;;;;;;1.70;1.40;;;23.80;42.80;;;;;;5001921;28;20054;-45
2022/07/31 00:29:39;;;;;;;2.03;1.40;;;23.70;42.80;;;;;;4997745;28;20069;-42
2022/07/31 00:32:06;;;;;;;1.92;1.38;;;23.70;42.70;;;;;;4993664;28;20593;-49
2022/07/31 00:34:33;;;;;;;5.72;1.42;;;23.70;42.70;;;;;;4999379;28;20057;-43
2022/07/31 00:37:02;;;;;;;2.65;1.50;;;23.70;42.80;;;;;;5000827;28;20062;-45
2022/07/31 00:39:31;;;;;;;1.90;1.20;;;23.70;42.90;;;;;;4993393;28;20046;-44
2022/07/31 00:41:58;;;;;;;2.90;1.42;;;23.60;42.90;;;;;;5001954;28;20061;-43
2022/07/31 00:44:25;;;;;;;2.08;1.40;;;23.60;42.90;;;;;;5001019;28;20054;-43
2022/07/31 00:46:53;;;;;;;1.98;1.30;;;23.50;42.90;;;;;;4998495;28;20081;-42
2022/07/31 00:49:20;;;;;;;1.77;1.05;;;23.50;43.00;;;;;;4999863;28;20065;-43
2022/07/31 00:51:47;;;;;;;2.53;1.27;;;23.50;43.10;;;;;;4998012;28;20069;-43
2022/07/31 00:54:16;;;;;;;2.70;1.50;;;23.50;43.10;;;;;;4998756;28;20057;-44
2022/07/31 00:56:43;;;;;;;2.50;1.65;;;23.40;43.20;;;;;;4998746;28;20065;-44
2022/07/31 00:59:11;;;;;;;2.40;1.23;;;23.40;43.20;;;;;;4996750;28;20486;-43
2022/07/31 01:01:38;;;;;;;3.92;1.40;;;23.30;43.20;;;;;;4997099;28;20069;-43
2022/07/31 01:04:06;;;;;;;1.98;1.27;;;23.40;43.30;;;;;;5001939;28;20058;-45
2022/07/31 01:06:33;;;;;;;1.35;1.25;;;23.40;43.40;;;;;;4998742;28;20068;-45
2022/07/31 01:09:00;;;;;;;2.40;1.50;;;23.30;43.80;;;;;;4995389;28;20053;-45
2022/07/31 01:11:38;;;;;;;2.22;1.55;;;23.30;43.50;;;;;;4989636;28;20429;-44
2022/07/31 01:14:08;;;;;;;4.43;1.80;;;23.30;43.60;;;;;;4997838;28;20050;-46
2022/07/31 01:16:40;;;;;;;2.80;1.40;;;23.30;43.60;;;;;;4999001;28;20062;-47
2022/07/31 01:19:18;;;;;;;2.45;1.50;;;23.20;43.60;;;;;;4997157;28;20831;-42
2022/07/31 01:21:58;;;;;;;5.82;1.50;;;23.10;43.60;;;;;;4992050;28;20064;-43
2022/07/31 01:24:39;;;;;;;1.17;1.00;;;23.10;43.70;;;;;;5001275;28;20058;-42
2022/07/31 01:27:15;;;;;;;2.30;1.35;;;23.10;44.10;;;;;;5000878;28;20410;-46
2022/07/31 01:29:48;;;;;;;3.03;1.27;;;23.10;43.60;;;;;;4997319;28;20505;-46
2022/07/31 01:32:24;;;;;;;6.07;2.10;;;23.00;43.60;;;;;;4998228;28;20095;-46
2022/07/31 01:34:57;;;;;;;3.10;1.38;;;23.00;43.70;;;;;;5003512;28;20052;-44
2022/07/31 01:37:43;;;;;;;2.63;1.33;;;23.00;43.80;;;;;;4997941;28;20069;-46
2022/07/31 01:40:15;;;;;;;1.63;1.48;;;22.90;44.00;;;;;;4991279;28;20076;-45
2022/07/31 01:42:47;;;;;;;2.47;1.25;;;22.90;43.80;;;;;;4997584;28;20049;-45
2022/07/31 01:45:17;;;;;;;3.28;1.63;;;22.80;43.90;;;;;;5002091;28;20057;-44
2022/07/31 01:47:46;;;;;;;4.20;1.83;;;22.80;44.00;;;;;;5000576;28;20486;-43
2022/07/31 01:50:14;;;;;;;3.35;1.60;;;22.80;44.00;;;;;;4997679;28;20050;-44
2022/07/31 01:52:43;;;;;;;1.55;1.23;;;22.80;44.20;;;;;;4999166;28;20771;-43
2022/07/31 01:55:12;;;;;;;2.08;1.30;;;22.70;44.20;;;;;;5004341;28;20062;-47
2022/07/31 01:57:41;;;;;;;2.70;1.58;;;22.70;44.30;;;;;;5004755;28;20560;-45
2022/07/31 02:00:10;;;;;;;1.75;1.20;;;22.70;44.40;;;;;;4997411;28;20391;-42
2022/07/31 02:02:40;;;;;;;2.40;1.30;;;22.60;44.30;;;;;;5002007;28;20069;-43
2022/07/31 02:05:09;;;;;;;2.42;1.25;;;22.60;44.40;;;;;;5001711;28;20418;-46
2022/07/31 02:07:39;;;;;;;3.42;1.40;;;22.60;44.70;;;;;;5004479;28;20068;-44
2022/07/31 02:10:09;;;;;;;2.00;1.30;;;22.50;44.30;;;;;;4997333;28;20073;-44
2022/07/31 02:12:37;;;;;;;2.45;1.38;;;22.50;44.40;;;;;;5001116;28;20061;-44
2022/07/31 02:15:07;;;;;;;2.08;1.20;;;22.50;44.40;;;;;;5000776;28;20053;-46
2022/07/31 02:17:36;;;;;;;2.05;1.40;;;22.50;44.50;;;;;;5004326;28;20053;-44
2022/07/31 02:20:07;;;;;;;2.33;1.58;;;22.40;44.60;;;;;;4997192;28;20073;-45
2022/07/31 02:22:35;;;;;;;3.60;1.67;;;22.40;44.80;;;;;;4997436;28;20061;-42
2022/07/31 02:25:03;;;;;;;1.80;1.40;;;22.30;44.70;;;;;;5002579;28;20069;-44
2022/07/31 02:27:31;;;;;;;2.92;1.45;;;22.30;44.80;;;;;;5003225;28;20057;-45
2022/07/31 02:30:02;;;;;;;2.30;1.40;;;22.30;45.00;;;;;;4998208;28;20054;-42
2022/07/31 02:32:31;;;;;;;3.08;1.40;;;22.30;45.00;;;;;;5000627;28;20068;-44
2022/07/31 02:35:00;;;;;;;2.50;1.40;;;22.30;45.00;;;;;;5001916;28;20053;-46
2022/07/31 02:37:31;;;;;;;2.47;1.48;;;22.30;45.00;;;;;;4998105;28;20418;-47
2022/07/31 02:40:01;;;;;;;3.00;1.50;;;22.20;45.10;;;;;;5000542;28;20054;-43
2022/07/31 02:42:29;;;;;;;2.00;1.65;;;22.20;45.20;;;;;;4999665;28;20050;-44
2022/07/31 02:44:57;;;;;;;2.30;1.42;;;22.20;45.20;;;;;;5000695;28;20050;-47
2022/07/31 02:47:25;;;;;;;4.72;1.40;;;22.20;45.30;;;;;;4995162;28;20056;-46
2022/07/31 02:49:53;;;;;;;3.33;1.40;;;22.10;45.40;;;;;;4999405;28;20058;-42
2022/07/31 02:52:20;;;;;;;2.85;1.30;;;22.10;45.40;;;;;;5000653;28;20068;-43
2022/07/31 02:54:51;;;;;;;2.20;1.40;;;22.10;45.50;;;;;;5002627;28;20521;-45
2022/07/31 02:57:19;;;;;;;5.82;1.70;;;22.10;45.60;;;;;;5001381;28;20061;-43
2022/07/31 02:59:46;;;;;;;3.30;1.50;;;22.10;45.60;;;;;;5000351;28;20053;-44
2022/07/31 03:02:13;;;;;;;2.35;1.40;;;22.10;45.70;;;;;;4995498;28;20069;-44
2022/07/31 03:04:41;;;;;;;2.38;1.40;;;22.10;45.70;;;;;;5000971;28;20049;-43
2022/07/31 03:07:08;;;;;;;2.75;1.38;;;22.00;45.80;;;;;;5001131;28;20395;-46
2022/07/31 03:09:35;;;;;;;1.42;1.23;;;22.00;45.80;;;;;;5001603;28;20053;-44
2022/07/31 03:12:05;;;;;;;2.63;1.92;;;22.00;45.80;;;;;;5000283;28;20528;-46
2022/07/31 03:14:34;;;;;;;2.72;1.33;;;22.00;45.80;;;;;;4999132;28;20058;-42
2022/07/31 03:17:02;;;;;;;2.72;1.40;;;22.00;45.80;;;;;;5000382;28;20064;-44
2022/07/31 03:19:31;;;;;;;2.47;1.42;;;22.00;45.90;;;;;;4999527;28;21455;-45
2022/07/31 03:21:59;;;;;;;3.42;1.80;;;22.00;46.10;;;;;;4997409;28;20069;-44
2022/07/31 03:24:27;;;;;;;2.58;1.33;;;21.90;46.00;;;;;;5000468;28;20053;-44
2022/07/31 03:26:54;;;;;;;2.80;1.60;;;21.90;46.10;;;;;;5002364;28;20050;-43
2022/07/31 03:29:23;;;;;;;3.05;1.52;;;21.90;46.10;;;;;;5001915;28;20058;-45
2022/07/31 03:31:50;;;;;;;2.08;1.50;;;21.90;46.20;;;;;;4993447;28;20069;-44
2022/07/31 03:34:17;;;;;;;2.25;1.60;;;21.90;46.20;;;;;;4999191;28;20054;-45
2022/07/31 03:36:45;;;;;;;2.97;1.50;;;21.90;46.20;;;;;;5001639;28;20057;-44
2022/07/31 03:39:12;;;;;;;3.97;1.58;;;21.90;46.30;;;;;;5001100;28;20049;-44
2022/07/31 03:41:40;;;;;;;3.55;1.40;;;21.90;46.30;;;;;;4994346;28;20065;-43
2022/07/31 03:44:08;;;;;;;2.58;1.42;;;21.90;46.20;;;;;;5001963;28;20073;-43
2022/07/31 03:46:37;;;;;;;3.50;1.50;;;21.90;46.30;;;;;;4993798;28;20053;-42
2022/07/31 03:49:05;;;;;;;4.00;1.90;;;21.90;46.30;;;;;;4993052;28;20069;-44
2022/07/31 03:51:33;;;;;;;3.15;1.83;;;21.90;46.40;;;;;;4990207;28;20065;-45
2022/07/31 03:54:00;;;;;;;5.03;1.80;;;21.80;46.30;;;;;;4992754;28;20061;-42
2022/07/31 03:56:28;;;;;;;3.38;1.80;;;21.90;46.40;;;;;;4996181;28;20532;-45
2022/07/31 03:58:55;;;;;;;2.58;1.50;;;21.90;46.40;;;;;;4995046;28;20065;-44
2022/07/31 04:01:23;;;;;;;4.40;1.77;;;21.80;46.40;;;;;;4994004;28;20080;-42
2022/07/31 04:03:58;;;;;;;3.47;1.52;;;21.90;46.40;;;;;;5002119;28;20054;-42
2022/07/31 04:06:26;;;;;;;2.75;1.80;;;21.90;46.50;;;;;;4993871;28;20053;-45
2022/07/31 04:08:53;;;;;;;3.70;1.90;;;21.90;46.40;;;;;;4993997;28;20057;-45
2022/07/31 04:11:20;;;;;;;3.42;1.83;;;21.90;46.40;;;;;;4991550;28;20049;-44
2022/07/31 04:13:47;;;;;;;2.92;1.65;;;21.90;46.60;;;;;;4998629;28;20062;-43
2022/07/31 04:16:15;;;;;;;2.05;1.15;;;21.90;46.60;;;;;;4998651;28;20418;-47
2022/07/31 04:18:42;;;;;;;3.30;1.50;;;21.90;46.70;;;;;;4995283;28;20521;-43
2022/07/31 04:21:10;;;;;;;3.22;1.88;;;21.90;46.70;;;;;;4993148;28;20564;-47
2022/07/31 04:23:38;;;;;;;2.30;1.55;;;21.90;46.80;;;;;;4996795;28;20406;-44
2022/07/31 04:26:05;;;;;;;10.30;1.65;;;21.90;46.80;;;;;;4982527;28;20053;-42
2022/07/31 04:28:33;;;;;;;4.03;1.50;;;21.90;46.70;;;;;;5002208;28;20050;-44
2022/07/31 04:31:00;;;;;;;5.85;1.60;;;21.90;46.60;;;;;;4997962;28;20062;-44
2022/07/31 04:33:27;;;;;;;2.85;1.52;;;21.90;46.40;;;;;;4995153;28;20520;-43
2022/07/31 04:35:54;;;;;;;4.03;1.80;;;21.90;46.40;;;;;;4999723;28;20391;-44
2022/07/31 04:38:23;;;;;;;5.40;1.80;;;21.90;46.10;;;;;;4998664;28;20341;-45
2022/07/31 04:40:50;;;;;;;4.10;1.80;;;21.80;46.40;;;;;;5000237;28;20413;-45
2022/07/31 04:43:18;;;;;;;4.40;1.92;;;21.80;46.70;;;;;;4993557;28;20050;-44
2022/07/31 04:45:45;;;;;;;8.77;1.85;;;21.80;46.90;;;;;;5000917;28;20053;-43
2022/07/31 04:48:12;;;;;;;5.32;1.95;;;21.80;46.90;;;;;;5001826;28;20498;-43
2022/07/31 04:50:40;;;;;;;2.92;1.52;;;21.80;47.10;;;;;;5000664;28;20060;-44
2022/07/31 04:53:07;;;;;;;3.17;1.60;;;21.80;47.20;;;;;;5001566;28;20050;-44
2022/07/31 04:55:36;;;;;;;3.75;1.40;;;21.70;47.30;;;;;;4997780;28;20058;-44
2022/07/31 04:58:03;;;;;;;2.83;1.65;;;21.70;47.30;;;;;;5000344;28;20405;-42
2022/07/31 05:00:30;;;;;;;3.33;2.08;;;21.70;47.30;;;;;;4998910;28;20066;-44
2022/07/31 05:02:57;;;;;;;3.75;1.88;;;21.70;47.30;;;;;;5002032;28;20058;-44
2022/07/31 05:05:25;;;;;;;3.00;1.55;;;21.70;47.40;;;;;;5002872;28;20509;-45
2022/07/31 05:07:52;;;;;;;2.47;1.58;;;21.70;47.30;;;;;;5004387;28;20062;-43
2022/07/31 05:13:01;;;;;;;2.88;1.30;;;21.70;47.30;;;;;;5002648;28;20061;-46
2022/07/31 05:15:29;;;;;;;3.35;2.10;;;21.70;47.50;;;;;;4998813;28;20402;-42
2022/07/31 05:17:56;;;;;;;4.43;2.33;;;21.80;47.80;;;;;;5003748;28;20049;-44
2022/07/31 05:20:24;;;;;;;5.70;2.00;;;21.80;48.00;;;;;;5005280;28;20049;-46
2022/07/31 05:22:51;;;;;;;3.13;1.90;;;21.80;48.10;;;;;;5004833;28;20065;-44
2022/07/31 05:25:19;;;;;;;3.40;1.80;;;21.90;48.20;;;;;;5005237;28;20489;-43
2022/07/31 05:27:46;;;;;;;4.00;1.70;;;21.90;48.30;;;;;;4998656;28;20057;-44
2022/07/31 05:30:15;;;;;;;2.95;1.60;;;22.00;48.40;;;;;;4990681;28;20050;-45
2022/07/31 05:32:42;;;;;;;2.35;1.50;;;22.00;48.40;;;;;;4981303;28;20422;-42
2022/07/31 05:35:09;;;;;;;2.95;1.70;;;22.00;48.30;;;;;;4982323;28;20054;-45
2022/07/31 05:37:36;;;;;;;3.92;1.60;;;22.10;48.20;;;;;;4986056;28;20061;-48
2022/07/31 05:40:05;;;;;;;2.00;1.40;;;22.10;48.20;;;;;;4994928;28;20057;-43
2022/07/31 05:42:32;;;;;;;4.00;1.67;;;22.10;48.10;;;;;;4973208;28;20101;-44
2022/07/31 05:44:59;;;;;;;3.25;1.67;;;22.20;48.20;;;;;;4998965;28;20141;-46
2022/07/31 05:47:27;;;;;;;26.75;14.98;;;22.20;48.30;;;;;;4971636;28;20050;-44
2022/07/31 05:49:55;;;;;;;25.23;15.60;;;22.20;48.20;;;;;;4978392;28;20062;-42
2022/07/31 05:52:22;;;;;;;10.88;6.10;;;22.30;48.30;;;;;;4989994;28;20057;-44
2022/07/31 05:54:49;;;;;;;8.80;3.15;;;22.30;48.10;;;;;;4988841;28;20754;-44
2022/07/31 05:57:17;;;;;;;2.30;1.67;;;22.30;48.10;;;;;;4979635;28;20529;-43
2022/07/31 05:59:45;;;;;;;3.38;1.73;;;22.30;48.20;;;;;;4978980;28;20397;-42
2022/07/31 06:02:13;;;;;;;1.52;1.35;;;22.40;48.20;;;;;;4998940;28;20537;-44
2022/07/31 06:04:41;;;;;;;3.55;1.38;;;22.40;48.30;;;;;;5004714;28;20054;-42
2022/07/31 06:07:08;;;;;;;2.22;1.55;;;22.40;48.30;;;;;;5002707;28;20046;-42
2022/07/31 06:09:35;;;;;;;2.28;1.45;;;22.50;48.40;;;;;;4994338;28;20054;-43
2022/07/31 06:12:03;;;;;;;8.15;1.95;;;22.50;48.30;;;;;;5004608;28;20069;-44
2022/07/31 06:14:30;;;;;;;3.63;1.73;;;22.60;48.20;;;;;;5000157;28;20057;-44
2022/07/31 06:16:57;;;;;;;5.47;1.75;;;22.60;48.20;;;;;;5004348;28;20061;-42
2022/07/31 06:19:24;;;;;;;4.32;1.75;;;22.60;48.20;;;;;;5001989;28;20053;-43
2022/07/31 06:21:53;;;;;;;2.47;1.70;;;22.70;48.30;;;;;;5002053;28;20060;-46
2022/07/31 06:24:20;;;;;;;2.30;1.60;;;22.70;48.50;;;;;;5004742;28;20061;-43
2022/07/31 06:26:47;;;;;;;4.07;1.70;;;22.80;48.30;;;;;;5003478;28;20050;-43
2022/07/31 06:29:14;;;;;;;2.60;1.55;;;22.90;48.30;;;;;;4993340;28;20062;-44
2022/07/31 06:31:42;;;;;;;2.97;1.70;;;22.90;48.30;;;;;;5003495;28;20548;-44
2022/07/31 06:34:09;;;;;;;3.33;1.75;;;23.00;48.30;;;;;;5001570;28;20064;-42
2022/07/31 06:36:36;;;;;;;2.10;1.80;;;23.00;48.20;;;;;;5000342;28;20053;-44
2022/07/31 06:39:05;;;;;;;4.10;1.58;;;23.10;48.20;;;;;;4991097;28;20096;-44
2022/07/31 06:41:45;;;;;;;2.03;1.63;;;23.10;48.00;;;;;;4980783;28;20069;-43
2022/07/31 06:44:13;;;;;;;3.22;1.55;;;23.20;48.10;;;;;;5002046;28;20060;-45
2022/07/31 06:46:40;;;;;;;4.22;1.60;;;23.30;48.10;;;;;;4997677;28;20532;-46
2022/07/31 06:49:07;;;;;;;7.22;1.75;;;23.40;48.00;;;;;;4974643;28;20062;-42
2022/07/31 06:51:35;;;;;;;6.70;1.90;;;23.40;47.90;;;;;;5001761;28;20054;-44
2022/07/31 06:54:06;;;;;;;4.60;2.10;;;23.50;47.90;;;;;;4994964;28;20066;-45
2022/07/31 06:56:34;;;;;;;5.13;2.05;;;23.60;47.60;;;;;;5001413;28;20054;-46
2022/07/31 06:59:02;;;;;;;3.17;2.00;;;23.60;47.30;;;;;;5001641;28;20060;-44
2022/07/31 07:01:29;;;;;;;9.57;2.20;;;23.70;46.80;;;;;;4996515;28;20054;-44
2022/07/31 07:03:57;;;;;;;5.05;2.28;;;23.70;46.80;;;;;;4999710;28;20061;-46
2022/07/31 07:06:24;;;;;;;5.93;2.13;;;23.70;46.60;;;;;;5003598;28;20059;-44
2022/07/31 07:08:52;;;;;;;3.08;2.00;;;23.70;46.40;;;;;;5003593;28;20599;-42
2022/07/31 07:11:21;;;;;;;4.10;2.22;;;23.70;46.40;;;;;;5003230;28;20057;-42
2022/07/31 07:13:48;;;;;;;4.15;1.83;;;23.70;45.90;;;;;;5002752;28;20054;-43
2022/07/31 07:16:16;;;;;;;6.55;2.40;;;23.80;45.80;;;;;;5003494;28;20064;-42
2022/07/31 07:18:43;;;;;;;3.72;1.80;;;23.80;45.90;;;;;;5002844;28;20054;-45
2022/07/31 07:21:11;;;;;;;6.97;2.45;;;23.80;45.90;;;;;;5002138;28;20057;-42
2022/07/31 07:23:38;;;;;;;4.65;2.42;;;23.80;45.30;;;;;;5002934;28;20062;-43
2022/07/31 07:26:05;;;;;;;5.95;2.25;;;23.90;45.40;;;;;;4999646;28;20058;-44
2022/07/31 07:28:35;;;;;;;5.63;2.58;;;23.90;44.90;;;;;;5000649;28;20058;-45
2022/07/31 07:31:02;;;;;;;4.95;2.05;;;23.90;44.60;;;;;;4997553;28;20065;-44
2022/07/31 07:33:30;;;;;;;3.75;1.70;;;24.00;44.90;;;;;;5004035;28;20072;-46
2022/07/31 07:35:58;;;;;;;5.82;2.50;;;24.00;45.00;;;;;;5001061;28;20053;-42
2022/07/31 07:38:25;;;;;;;5.13;1.92;;;24.10;45.00;;;;;;4996038;28;20425;-43
2022/07/31 07:40:52;;;;;;;4.03;2.33;;;24.10;45.00;;;;;;4997244;28;20066;-43
2022/07/31 07:43:20;;;;;;;6.93;2.63;;;24.10;45.00;;;;;;4999423;28;20414;-45
2022/07/31 07:45:48;;;;;;;6.13;2.53;;;24.10;44.80;;;;;;5002316;28;20069;-44
2022/07/31 07:48:15;;;;;;;4.05;2.20;;;24.10;44.90;;;;;;4999486;28;20057;-43
2022/07/31 07:50:42;;;;;;;7.32;2.55;;;24.10;44.70;;;;;;4999597;28;20540;-43
2022/07/31 07:53:11;;;;;;;4.75;2.30;;;24.10;44.40;;;;;;4996791;28;20058;-44
2022/07/31 07:55:38;;;;;;;3.97;2.15;;;24.10;44.40;;;;;;5003483;28;20517;-42
2022/07/31 07:58:06;;;;;;;4.75;2.20;;;24.10;44.60;;;;;;4997786;28;20046;-44
2022/07/31 08:00:33;;;;;;;6.00;2.20;;;24.10;44.90;;;;;;4999115;28;20045;-43
2022/07/31 08:03:01;;;;;;;2.95;1.92;;;24.10;45.00;;;;;;4993860;28;20061;-43
2022/07/31 08:05:29;;;;;;;8.18;2.45;;;24.10;45.00;;;;;;4999620;28;20061;-44
2022/07/31 08:07:56;;;;;;;3.13;1.88;;;24.10;44.80;;;;;;5000615;28;20054;-43
2022/07/31 08:10:23;;;;;;;7.28;2.83;;;24.10;44.90;;;;;;4998541;28;20509;-43
2022/07/31 08:12:53;;;;;;;5.60;2.40;;;24.10;44.60;;;;;;5000048;28;20066;-43
2022/07/31 08:15:20;;;;;;;2.78;1.70;;;24.10;44.50;;;;;;4998761;28;20065;-44
2022/07/31 08:17:47;;;;;;;4.18;1.83;;;24.10;44.80;;;;;;4995080;28;20046;-42
2022/07/31 08:20:16;;;;;;;4.43;2.03;;;24.10;45.20;;;;;;4995049;28;20065;-44
2022/07/31 08:22:43;;;;;;;2.38;1.45;;;24.20;45.40;;;;;;5002248;28;20460;-42
2022/07/31 08:25:10;;;;;;;2.22;1.63;;;24.20;45.50;;;;;;4999914;28;20062;-42
2022/07/31 08:27:38;;;;;;;7.70;2.22;;;24.20;45.60;;;;;;5002031;28;20057;-43
2022/07/31 08:30:06;;;;;;;4.85;2.25;;;24.30;45.30;;;;;;4997664;28;20061;-41
2022/07/31 08:32:33;;;;;;;4.78;2.10;;;24.30;44.90;;;;;;5001744;28;20529;-43
2022/07/31 08:35:00;;;;;;;4.95;2.33;;;24.40;45.00;;;;;;4997350;28;20049;-45
2022/07/31 08:37:29;;;;;;;3.13;1.83;;;24.40;45.00;;;;;;4998551;28;20046;-44
2022/07/31 08:39:56;;;;;;;5.82;2.10;;;24.40;45.10;;;;;;4966519;28;20057;-45
2022/07/31 08:42:24;;;;;;;4.63;2.60;;;24.40;45.00;;;;;;4991543;28;21088;-44
2022/07/31 08:44:51;;;;;;;3.05;1.77;;;24.50;45.00;;;;;;5001302;28;20509;-43
2022/07/31 08:47:22;;;;;;;4.80;2.50;;;24.60;45.10;;;;;;4978771;28;20054;-43
2022/07/31 08:49:49;;;;;;;5.97;2.67;;;24.60;44.80;;;;;;4982228;28;20054;-47
2022/07/31 08:52:19;;;;;;;12.98;3.05;;;24.60;44.50;;;;;;4990275;28;20050;-44
2022/07/31 08:54:49;;;;;;;7.82;2.63;;;24.60;44.10;;;;;;4995510;28;20133;-42
2022/07/31 08:57:16;;;;;;;3.58;2.25;;;24.70;44.30;;;;;;4996419;28;20518;-44
2022/07/31 08:59:44;;;;;;;5.30;2.28;;;24.70;44.10;;;;;;4984982;28;20057;-43
2022/07/31 09:02:14;;;;;;;8.52;3.08;;;24.70;44.30;;;;;;4998762;28;20058;-45
2022/07/31 09:04:42;;;;;;;4.88;2.25;;;24.70;44.10;;;;;;4997953;28;20509;-42
2022/07/31 09:07:13;;;;;;;5.45;2.58;;;24.80;44.90;;;;;;4993337;28;20068;-42
2022/07/31 09:09:43;;;;;;;2.97;1.92;;;24.80;45.00;;;;;;4995503;28;20058;-43
2022/07/31 09:12:12;;;;;;;3.55;2.25;;;24.80;44.80;;;;;;4994279;28;20077;-42
2022/07/31 09:14:39;;;;;;;4.57;2.33;;;24.80;44.40;;;;;;4989105;28;20395;-43
2022/07/31 09:17:14;;;;;;;4.00;2.20;;;24.90;44.50;;;;;;4994575;28;20502;-44
2022/07/31 09:19:42;;;;;;;7.10;2.50;;;24.90;44.00;;;;;;4978771;28;20061;-42
2022/07/31 09:22:20;;;;;;;4.10;2.22;;;25.00;43.80;;;;;;4986847;28;20054;-45
2022/07/31 09:24:47;;;;;;;5.18;1.90;;;25.00;43.70;;;;;;4986250;28;20050;-44
2022/07/31 09:27:16;;;;;;;4.88;2.05;;;25.00;44.10;;;;;;4998156;28;20057;-46
2022/07/31 09:29:45;;;;;;;5.45;1.92;;;25.10;44.30;;;;;;4982244;28;20070;-44
2022/07/31 09:32:14;;;;;;;4.28;1.90;;;25.10;44.10;;;;;;4988154;28;20061;-44
2022/07/31 09:34:43;;;;;;;3.83;1.50;;;25.20;43.90;;;;;;4985477;28;20061;-45
2022/07/31 09:37:11;;;;;;;5.07;1.67;;;25.20;44.00;;;;;;4996624;28;20058;-43
2022/07/31 09:39:39;;;;;;;3.00;1.77;;;25.30;44.10;;;;;;4993333;28;20057;-42
2022/07/31 09:42:08;;;;;;;4.68;2.15;;;25.40;44.00;;;;;;4981160;28;20055;-48
2022/07/31 09:44:38;;;;;;;1.90;1.70;;;25.50;43.80;;;;;;4975401;28;20506;-42
2022/07/31 09:47:06;;;;;;;4.88;3.40;;;25.50;43.70;;;;;;4995876;28;20062;-43
2022/07/31 09:49:35;;;;;;;6.07;3.42;;;25.60;43.70;;;;;;4990063;28;20050;-45
2022/07/31 09:52:02;;;;;;;3.80;2.20;;;25.70;43.70;;;;;;4991441;28;21343;-44
2022/07/31 09:54:30;;;;;;;4.00;1.80;;;25.70;43.60;;;;;;4991006;28;20046;-43
2022/07/31 09:56:58;;;;;;;2.85;1.80;;;25.80;43.70;;;;;;4994169;28;21503;-42
2022/07/31 09:59:26;;;;;;;4.75;1.88;;;25.90;43.50;;;;;;4987612;28;20061;-45
2022/07/31 10:01:55;;;;;;;3.30;2.00;;;26.00;43.50;;;;;;5000017;28;20058;-47
2022/07/31 10:04:23;;;;;;;4.00;2.03;;;26.10;43.30;;;;;;5002421;28;20045;-42
2022/07/31 10:06:51;;;;;;;2.92;1.98;;;26.20;43.30;;;;;;5000353;28;20057;-43
2022/07/31 10:09:20;;;;;;;2.85;1.55;;;26.20;43.20;;;;;;4999281;28;20510;-46
2022/07/31 10:11:49;;;;;;;2.10;1.40;;;26.30;43.60;;;;;;5001765;28;20045;-42
2022/07/31 10:14:21;;;;;;;4.60;1.40;;;26.40;43.60;;;;;;4998723;28;20062;-42
2022/07/31 10:16:51;;;;;;;3.50;1.60;;;26.50;43.30;;;;;;5002349;28;20065;-44
2022/07/31 10:19:21;;;;;;;2.83;1.60;;;26.60;42.90;;;;;;4999327;28;20046;-43
2022/07/31 10:21:54;;;;;;;4.65;1.65;;;26.70;42.60;;;;;;4998635;28;20058;-42
2022/07/31 10:24:23;;;;;;;6.73;2.17;;;26.80;42.50;;;;;;5000735;28;20053;-47
2022/07/31 10:26:52;;;;;;;6.20;1.90;;;26.80;41.30;;;;;;5002954;28;20057;-42
2022/07/31 10:29:19;;;;;;;2.45;1.75;;;26.90;41.60;;;;;;4999288;28;20053;-45
2022/07/31 10:31:47;;;;;;;3.05;1.92;;;27.00;41.70;;;;;;4987758;28;20052;-43
2022/07/31 10:34:15;;;;;;;1.95;1.50;;;27.00;41.70;;;;;;4974913;28;20065;-41
2022/07/31 10:36:48;;;;;;;2.25;1.70;;;27.00;41.50;;;;;;4971903;28;20525;-42
2022/07/31 10:39:23;;;;;;;1.98;1.60;;;27.10;41.40;;;;;;4984477;28;20418;-45
2022/07/31 10:42:07;;;;;;;1.98;1.40;;;27.10;41.30;;;;;;4974447;28;20065;-42
2022/07/31 10:44:36;;;;;;;;;;;27.10;41.40;;;;;;4994941;28;20521;-42
2022/07/31 10:47:13;;;;;;;2.17;1.40;;;27.20;41.60;;;;;;4966243;28;19936;-43
2022/07/31 10:49:42;;;;;;;4.60;1.80;;;27.30;41.00;;;;;;4984819;28;20054;-42
2022/07/31 10:52:10;;;;;;;2.47;1.60;;;27.30;41.00;;;;;;4971148;28;20058;-45
2022/07/31 10:54:41;;;;;;;2.28;1.50;;;27.40;41.40;;;;;;4980686;28;20058;-41
2022/07/31 10:57:09;;;;;;;3.45;1.80;;;27.40;41.40;;;;;;4968323;28;20050;-42
2022/07/31 10:59:36;;;;;;;2.45;1.35;;;27.50;41.20;;;;;;4982414;28;20077;-42
2022/07/31 11:02:04;;;;;;;1.98;1.48;;;27.50;41.50;;;;;;4970481;28;20061;-43
2022/07/31 11:04:32;;;;;;;1.40;1.30;;;27.60;41.20;;;;;;4970735;28;20074;-42
2022/07/31 11:07:00;;;;;;;4.20;1.63;;;27.60;40.70;;;;;;4978585;28;20057;-43
2022/07/31 11:09:29;;;;;;;3.90;1.50;;;27.60;40.60;;;;;;4987229;28;20058;-43
2022/07/31 11:11:56;;;;;;;4.50;1.73;;;27.60;40.10;;;;;;4977642;28;20054;-42
2022/07/31 11:14:34;;;;;;;4.85;1.70;;;27.60;40.00;;;;;;4971034;28;20062;-43
2022/07/31 11:17:03;;;;;;;2.17;1.30;;;27.60;40.30;;;;;;4971774;28;20056;-43
2022/07/31 11:19:38;;;;;;;3.10;1.45;;;27.60;40.70;;;;;;4971543;28;20065;-47
2022/07/31 11:22:13;;;;;;;2.35;1.30;;;27.70;40.50;;;;;;4970405;28;20435;-42
2022/07/31 11:24:42;;;;;;;2.72;1.35;;;27.70;40.30;;;;;;4978979;28;20528;-43
2022/07/31 11:27:09;;;;;;;4.82;1.75;;;27.70;40.50;;;;;;4974119;28;20049;-44
2022/07/31 11:29:37;;;;;;;2.35;1.33;;;27.70;40.00;;;;;;4971672;28;20058;-46
2022/07/31 11:32:15;;;;;;;1.30;1.15;;;27.70;40.00;;;;;;4976243;28;20049;-44
2022/07/31 11:34:47;;;;;;;4.20;1.25;;;27.70;40.20;;;;;;4976045;28;20065;-50
2022/07/31 11:37:18;;;;;;;1.98;1.23;;;27.70;40.20;;;;;;4977031;28;20058;-45
2022/07/31 11:39:46;;;;;;;1.67;1.15;;;27.70;40.40;;;;;;4979414;28;20061;-47
2022/07/31 11:42:13;;;;;;;1.50;1.20;;;27.70;40.40;;;;;;4976307;28;20050;-46
2022/07/31 11:44:41;;;;;;;2.90;1.30;;;27.80;40.30;;;;;;4975996;28;20065;-43
2022/07/31 11:47:08;;;;;;;2.28;1.10;;;27.80;39.70;;;;;;4972474;28;20062;-43
2022/07/31 11:49:36;;;;;;;2.50;1.45;;;27.90;39.80;;;;;;4972727;28;21079;-42
2022/07/31 11:52:06;;;;;;;1.70;1.25;;;28.00;40.00;;;;;;4975587;28;20054;-45
2022/07/31 11:54:34;;;;;;;1.70;1.15;;;27.90;39.00;;;;;;4980895;28;20058;-42
2022/07/31 11:57:04;;;;;;;3.40;1.00;;;28.00;39.40;;;;;;4990584;28;20061;-47
2022/07/31 11:59:32;;;;;;;1.13;0.93;;;28.00;39.40;;;;;;4978039;28;20383;-44
2022/07/31 12:02:05;;;;;;;1.30;1.13;;;28.00;38.90;;;;;;4972466;28;20054;-47
2022/07/31 12:04:35;;;;;;;2.38;0.90;;;28.00;38.90;;;;;;4974967;28;20058;-44
2022/07/31 12:07:02;;;;;;;2.60;0.90;;;28.00;39.30;;;;;;4977688;28;20093;-47
2022/07/31 12:09:30;;;;;;;1.60;1.00;;;28.00;39.00;;;;;;4984023;28;20061;-43
2022/07/31 12:11:58;;;;;;;2.13;1.00;;;28.00;38.80;;;;;;4981315;28;20049;-45
2022/07/31 12:14:31;;;;;;;1.48;1.08;;;28.00;39.50;;;;;;4981822;28;20054;-47
2022/07/31 12:16:58;;;;;;;1.13;0.90;;;28.00;38.80;;;;;;4989994;28;20084;-46
2022/07/31 12:19:27;;;;;;;2.50;0.85;;;28.00;39.20;;;;;;4986677;28;20487;-44
2022/07/31 12:21:54;;;;;;;2.95;0.85;;;28.00;38.90;;;;;;4974455;28;20067;-46
2022/07/31 12:24:22;;;;;;;2.10;1.00;;;28.00;39.10;;;;;;4992496;28;20058;-46
2022/07/31 12:26:51;;;;;;;1.77;1.00;;;28.00;38.40;;;;;;4986498;28;20058;-45
2022/07/31 12:29:20;;;;;;;1.42;0.88;;;28.00;39.00;;;;;;4990021;28;20061;-48
2022/07/31 12:31:50;;;;;;;2.15;1.00;;;28.10;38.80;;;;;;4990892;28;20069;-45
2022/07/31 12:34:37;;;;;;;4.18;1.00;;;28.00;38.00;;;;;;4998270;28;20064;-45
2022/07/31 12:37:06;;;;;;;1.73;0.90;;;28.00;38.00;;;;;;5000582;28;20061;-43
2022/07/31 12:39:37;;;;;;;1.75;1.10;;;28.00;39.10;;;;;;4999278;28;20053;-43
2022/07/31 12:42:06;;;;;;;3.05;1.25;;;28.00;38.20;;;;;;4989927;28;20054;-46
2022/07/31 12:44:33;;;;;;;1.15;0.90;;;28.10;38.50;;;;;;4998878;28;20061;-43
2022/07/31 12:47:01;;;;;;;1.15;0.88;;;28.10;38.00;;;;;;4997356;28;20776;-43
2022/07/31 12:49:29;;;;;;;1.95;0.88;;;28.10;38.90;;;;;;4997542;28;20077;-46
2022/07/31 12:51:56;;;;;;;1.63;0.93;;;28.10;37.70;;;;;;4999388;28;20057;-45
2022/07/31 12:54:25;;;;;;;1.13;0.90;;;28.20;37.70;;;;;;5000326;28;20079;-42
2022/07/31 12:56:52;;;;;;;1.17;1.05;;;28.20;37.20;;;;;;4994666;28;20069;-45